createdAt,value
2022-11-06T00:00:42.600Z,1.15
2022-11-06T00:06:59.508Z,1.15
2022-11-06T00:13:13.468Z,1.30
2022-11-06T00:19:29.192Z,1.67
2022-11-06T00:25:44.795Z,1.42
2022-11-06T00:32:03.326Z,1.43
2022-11-06T00:38:16.981Z,1.22
2022-11-06T00:44:30.116Z,1.47
2022-11-06T00:50:47.775Z,2.15
2022-11-06T00:57:00.131Z,2.80
2022-11-06T01:03:14.492Z,1.95
2022-11-06T01:09:30.292Z,2.50
2022-11-06T01:15:48.007Z,2.25
2022-11-06T01:22:04.406Z,2.87
2022-11-06T01:34:26.599Z,2.17
2022-11-06T01:40:38.552Z,2.75
2022-11-06T01:46:50.751Z,2.22
2022-11-06T01:53:05.324Z,2.72
2022-11-06T01:59:20.765Z,2.75
2022-11-06T02:05:34.854Z,2.30
2022-11-06T02:11:48.746Z,1.50
2022-11-06T02:18:23.071Z,1.07
2022-11-06T02:24:50.744Z,1.30
2022-11-06T02:31:07.405Z,2.02
2022-11-06T02:37:22.919Z,1.35
2022-11-06T02:43:45.174Z,1.60
2022-11-06T02:50:06.627Z,0.90
2022-11-06T02:56:29.511Z,1.62
2022-11-06T03:02:43.424Z,1.22
2022-11-06T03:08:55.857Z,1.52
2022-11-06T03:15:13.064Z,1.22
2022-11-06T03:21:27.860Z,0.80
2022-11-06T03:27:45.715Z,0.50
2022-11-06T03:33:57.482Z,1.57
2022-11-06T03:40:22.563Z,1.17
2022-11-06T03:46:35.765Z,0.70
2022-11-06T03:52:48.468Z,0.90
2022-11-06T03:59:03.358Z,1.17
2022-11-06T04:05:20.963Z,1.10
2022-11-06T04:11:51.450Z,0.60
2022-11-06T04:18:07.020Z,0.65
2022-11-06T04:24:38.796Z,1.10
2022-11-06T04:30:54.137Z,1.17
2022-11-06T04:37:14.888Z,1.47
2022-11-06T04:43:29.664Z,0.78
2022-11-06T04:49:48.422Z,0.60
2022-11-06T04:56:04.929Z,0.70
2022-11-06T05:08:26.381Z,0.68
2022-11-06T05:14:39.875Z,0.70
2022-11-06T05:20:57.133Z,0.93
2022-11-06T05:27:10.510Z,0.70
2022-11-06T05:33:27.176Z,0.68
2022-11-06T05:39:42.019Z,0.70
2022-11-06T05:45:59.194Z,0.60
2022-11-06T05:52:15.100Z,0.75
2022-11-06T05:58:28.389Z,0.90
2022-11-06T06:04:43.169Z,0.98
2022-11-06T06:10:58.379Z,0.50
2022-11-06T06:17:11.671Z,0.70
2022-11-06T06:23:26.394Z,0.75
2022-11-06T06:29:39.431Z,0.80
2022-11-06T06:35:51.573Z,0.50
2022-11-06T06:42:08.254Z,0.68
2022-11-06T06:48:24.851Z,1.30
2022-11-06T06:54:39.498Z,0.82
2022-11-06T07:00:55.328Z,0.88
2022-11-06T07:07:08.229Z,0.98
2022-11-06T07:13:23.181Z,0.60
2022-11-06T07:19:38.553Z,0.93
2022-11-06T07:25:51.951Z,0.88
2022-11-06T07:32:09.263Z,0.70
2022-11-06T07:38:23.825Z,0.57
2022-11-06T07:44:42.327Z,1.10
2022-11-06T07:50:58.173Z,0.90
2022-11-06T07:57:10.751Z,0.98
2022-11-06T08:03:29.178Z,0.98
2022-11-06T08:09:46.437Z,0.90
2022-11-06T08:16:02.724Z,0.70
2022-11-06T08:22:15.207Z,0.95
2022-11-06T08:28:31.272Z,0.93
2022-11-06T08:34:47.301Z,0.55
2022-11-06T08:40:58.721Z,0.85
2022-11-06T08:47:13.598Z,0.90
2022-11-06T08:53:31.650Z,0.82
2022-11-06T08:59:47.814Z,0.80
2022-11-06T09:06:03.642Z,0.60
2022-11-06T09:12:19.252Z,0.37
2022-11-06T09:18:33.923Z,0.60
2022-11-06T09:25:03.096Z,0.75
2022-11-06T09:31:06.813Z,0.93
2022-11-06T09:37:23.612Z,1.00
2022-11-06T09:50:04.570Z,1.00
2022-11-06T09:56:18.481Z,0.60
2022-11-06T10:02:37.223Z,0.70
2022-11-06T10:08:52.449Z,0.88
2022-11-06T10:15:14.898Z,0.50
2022-11-06T10:21:34.708Z,0.90
2022-11-06T10:27:51.423Z,1.17
2022-11-06T10:34:12.803Z,0.85
2022-11-06T10:40:33.345Z,0.40
2022-11-06T10:46:46.643Z,0.72
2022-11-06T10:53:05.997Z,0.57
2022-11-06T10:59:21.117Z,0.70
2022-11-06T11:05:39.792Z,0.50
2022-11-06T11:11:54.300Z,0.40
2022-11-06T11:18:23.895Z,0.57
2022-11-06T11:24:40.401Z,0.40
2022-11-06T11:37:15.391Z,0.42
2022-11-06T11:43:36.128Z,0.75
2022-11-06T11:49:56.722Z,0.50
2022-11-06T11:56:14.610Z,0.80
2022-11-06T12:02:30.726Z,0.85
2022-11-06T12:08:45.244Z,0.78
2022-11-06T12:15:08.448Z,0.47
2022-11-06T12:21:29.638Z,0.65
2022-11-06T12:27:49.763Z,0.78
2022-11-06T12:34:06.794Z,0.55
2022-11-06T12:40:29.702Z,0.75
2022-11-06T12:46:50.096Z,0.55
2022-11-06T12:53:26.641Z,0.60
2022-11-06T12:59:50.311Z,0.85
2022-11-06T13:06:11.897Z,0.60
2022-11-06T13:12:24.436Z,0.68
2022-11-06T13:18:38.377Z,0.60
2022-11-06T13:24:50.048Z,0.90
2022-11-06T13:31:05.505Z,1.35
2022-11-06T13:37:22.432Z,1.80
2022-11-06T13:43:39.345Z,1.45
2022-11-06T13:49:54.423Z,1.17
2022-11-06T13:56:18.711Z,1.82
2022-11-06T14:02:54.213Z,0.93
2022-11-06T14:09:10.853Z,1.05
2022-11-06T14:15:28.823Z,0.50
2022-11-06T14:21:58.011Z,0.65
2022-11-06T14:28:15.441Z,0.85
2022-11-06T14:34:42.522Z,0.98
2022-11-06T14:40:58.691Z,0.90
2022-11-06T14:47:13.199Z,0.82
2022-11-06T14:53:32.842Z,1.00
2022-11-06T14:59:46.716Z,0.70
2022-11-06T15:05:59.933Z,0.70
2022-11-06T15:12:14.086Z,0.85
2022-11-06T15:18:28.550Z,0.95
2022-11-06T15:24:41.766Z,0.70
2022-11-06T15:30:58.958Z,0.57
2022-11-06T15:37:14.259Z,0.70
2022-11-06T15:43:33.292Z,0.68
2022-11-06T15:49:51.439Z,0.50
2022-11-06T15:56:06.934Z,0.80
2022-11-06T16:02:26.308Z,0.53
2022-11-06T16:08:40.617Z,0.75
2022-11-06T16:14:53.436Z,0.78
2022-11-06T16:21:05.134Z,0.50
2022-11-06T16:27:26.150Z,0.60
2022-11-06T16:33:39.073Z,0.80
2022-11-06T16:39:56.079Z,0.82
2022-11-06T16:46:08.952Z,0.85
2022-11-06T16:52:42.436Z,0.40
2022-11-06T16:59:00.817Z,0.62
2022-11-06T17:05:16.775Z,0.68
2022-11-06T17:11:28.768Z,0.50
2022-11-06T17:17:42.810Z,0.40
2022-11-06T17:24:07.614Z,0.40
2022-11-06T17:30:16.510Z,0.87
2022-11-06T17:36:29.595Z,0.65
2022-11-06T17:42:44.801Z,0.60
2022-11-06T17:48:56.095Z,0.50
2022-11-06T17:55:12.351Z,0.57
2022-11-06T18:01:23.300Z,0.40
2022-11-06T18:07:39.879Z,0.47
2022-11-06T18:13:56.353Z,0.30
2022-11-06T18:20:08.385Z,0.42
2022-11-06T18:26:27.900Z,0.33
2022-11-06T18:32:41.746Z,0.50
2022-11-06T18:38:55.643Z,0.70
2022-11-06T18:45:11.907Z,0.60
2022-11-06T18:57:33.196Z,0.53
2022-11-06T19:03:45.426Z,0.42
2022-11-06T19:10:02.204Z,0.40
2022-11-06T19:16:19.994Z,0.40
2022-11-06T19:22:36.047Z,0.72
2022-11-06T19:28:49.755Z,0.70
2022-11-06T19:41:26.315Z,0.40
2022-11-06T19:47:42.376Z,0.90
2022-11-06T19:53:58.141Z,0.60
2022-11-06T20:00:20.217Z,0.80
2022-11-06T20:06:32.697Z,0.40
2022-11-06T20:12:47.172Z,0.57
2022-11-06T20:19:07.878Z,0.40
2022-11-06T20:25:22.517Z,0.55
2022-11-06T20:31:40.530Z,0.55
2022-11-06T20:37:58.285Z,0.50
2022-11-06T20:44:14.352Z,0.40
2022-11-06T20:50:26.999Z,0.75
2022-11-06T20:56:39.568Z,0.65
2022-11-06T21:03:00.474Z,0.62
2022-11-06T21:09:09.968Z,0.72
2022-11-06T21:15:22.097Z,0.35
2022-11-06T21:21:40.636Z,0.37
2022-11-06T21:27:56.511Z,0.50
2022-11-06T21:34:07.497Z,0.95
2022-11-06T21:40:27.246Z,0.80
2022-11-06T21:46:45.658Z,0.67
2022-11-06T21:53:15.081Z,0.60
2022-11-06T21:59:36.343Z,0.82
2022-11-06T22:05:48.153Z,0.72
2022-11-06T22:12:04.551Z,0.70
2022-11-06T22:24:28.722Z,0.42
2022-11-06T22:30:42.235Z,0.75
2022-11-06T22:36:56.034Z,0.47
2022-11-06T22:43:14.249Z,0.70
2022-11-06T22:55:44.384Z,0.70
2022-11-06T23:02:02.238Z,0.50
2022-11-06T23:08:19.193Z,0.50
2022-11-06T23:14:34.135Z,0.68
2022-11-06T23:20:50.514Z,0.57
2022-11-06T23:33:17.868Z,0.60
2022-11-06T23:39:32.157Z,0.72
2022-11-06T23:45:57.697Z,0.70
2022-11-06T23:52:14.462Z,0.60
2022-11-06T23:58:32.193Z,0.98
